Terminal Aerodrome Forecast
Issued by NWS

Home | Current Version | Previous Version | Text Only | Print | Product List | Glossary Off
Versions: 1 2 3 4 5 6 7 8 9 10 11 12 13 14 15 16 17 18

614
FTUS43 KBIS 220520
TAFMOT
TAF
KMOT 220520Z 2206/2306 17006KT P6SM SCT250
     FM221200 20005KT P6SM SCT250
     FM221900 17007KT P6SM SCT250
     FM222200 14007KT P6SM SCT070 SCT140
     FM230100 11007KT P6SM BKN100=

USA.gov is the U.S. government's official web portal to all federal, state and local government web resources and services.